Time;durP1;ratioP1;P1;durP2;ratioP2;P2;SDS_P1;SDS_P2;PMS_P1;PMS_P2;Temp;Humidity;BMP_temperature;BMP_pressure;BME280_temperature;BME280_humidity;BME280_pressure;Samples;Min_cycle;Max_cycle;Signal;HPM_P1;HPM_P2
2021/10/27 00:00:41;;;;;;;4.33;1.63;;;13.10;80.00;;;;;;4977878;28;20743;-73
2021/10/27 00:03:08;;;;;;;13.87;3.03;;;13.10;80.30;;;;;;4941942;28;20220;-74
2021/10/27 00:05:35;;;;;;;3.73;3.43;;;13.10;80.50;;;;;;4949521;28;20217;-74
2021/10/27 00:08:02;;;;;;;3.80;3.23;;;13.00;80.70;;;;;;4953880;29;20223;-74
2021/10/27 00:10:29;;;;;;;1.67;1.57;;;13.00;80.80;;;;;;4952299;29;20229;-74
2021/10/27 00:12:56;;;;;;;7.57;3.47;;;13.00;81.00;;;;;;4948233;29;20226;-74
2021/10/27 00:15:23;;;;;;;1.63;1.53;;;13.00;81.20;;;;;;4945072;28;20742;-74
2021/10/27 00:17:51;;;;;;;3.17;2.90;;;13.00;81.60;;;;;;4946531;29;20218;-74
2021/10/27 00:20:18;;;;;;;3.67;3.40;;;12.90;81.70;;;;;;4978772;28;20220;-74
2021/10/27 00:22:45;;;;;;;5.23;2.13;;;12.90;81.80;;;;;;4943277;28;20210;-73
2021/10/27 00:25:12;;;;;;;8.83;4.33;;;12.90;81.90;;;;;;4949173;28;20238;-73
2021/10/27 00:27:40;;;;;;;2.20;2.00;;;12.90;82.00;;;;;;4946009;28;20246;-74
2021/10/27 00:30:09;;;;;;;4.83;2.77;;;12.90;82.10;;;;;;4947520;28;20250;-75
2021/10/27 00:32:36;;;;;;;2.23;2.13;;;12.90;82.20;;;;;;4945553;28;20222;-74
2021/10/27 00:35:04;;;;;;;4.53;3.23;;;12.90;82.50;;;;;;4946291;29;20319;-74
2021/10/27 00:37:31;;;;;;;6.70;5.10;;;12.90;82.60;;;;;;4953757;29;20219;-74
2021/10/27 00:39:58;;;;;;;2.43;2.10;;;12.80;82.90;;;;;;4952430;28;20598;-74
2021/10/27 00:42:26;;;;;;;3.27;3.07;;;12.80;83.10;;;;;;4947228;28;20638;-74
2021/10/27 00:44:53;;;;;;;7.63;6.03;;;12.70;83.10;;;;;;4945777;28;20230;-74
2021/10/27 00:47:20;;;;;;;3.97;2.53;;;12.70;83.40;;;;;;4963409;28;20292;-74
2021/10/27 00:49:48;;;;;;;1.13;1.13;;;12.70;83.50;;;;;;4945435;28;20222;-74
2021/10/27 00:52:17;;;;;;;1.03;1.03;;;12.70;83.50;;;;;;4941397;28;20284;-74
2021/10/27 00:54:47;;;;;;;3.43;3.13;;;12.60;83.50;;;;;;4953794;28;20238;-74
2021/10/27 00:57:16;;;;;;;2.20;2.10;;;12.60;83.60;;;;;;4951669;29;20222;-74
2021/10/27 00:59:44;;;;;;;2.03;1.87;;;12.60;83.70;;;;;;4947058;28;20555;-73
2021/10/27 01:02:13;;;;;;;2.73;2.53;;;12.50;83.70;;;;;;4950629;28;20217;-73
2021/10/27 01:04:42;;;;;;;2.23;2.00;;;12.50;83.90;;;;;;4948686;29;20222;-74
2021/10/27 01:07:10;;;;;;;2.80;2.57;;;12.50;84.00;;;;;;4944120;29;20224;-74
2021/10/27 01:09:38;;;;;;;2.30;1.90;;;12.50;84.10;;;;;;4965662;28;20635;-74
2021/10/27 01:12:06;;;;;;;3.27;2.93;;;12.40;84.10;;;;;;4948173;28;20226;-74
2021/10/27 01:14:37;;;;;;;2.23;2.13;;;12.40;84.20;;;;;;4951637;29;20234;-74
2021/10/27 01:17:06;;;;;;;2.53;2.33;;;12.40;84.30;;;;;;4947948;29;20217;-74
2021/10/27 01:19:55;;;;;;;1.87;1.77;;;12.40;84.30;;;;;;4945978;29;20218;-74
2021/10/27 01:22:34;;;;;;;4.80;2.13;;;12.40;84.30;;;;;;4946349;28;20213;-73
2021/10/27 01:25:03;;;;;;;2.93;2.63;;;12.40;84.30;;;;;;4947442;28;20643;-74
2021/10/27 01:27:31;;;;;;;1.53;1.53;;;12.40;84.30;;;;;;4944000;29;20210;-74
2021/10/27 01:29:59;;;;;;;2.50;2.30;;;12.40;84.40;;;;;;4978565;28;20297;-74
2021/10/27 01:32:35;;;;;;;3.77;3.47;;;12.40;84.50;;;;;;4943722;28;20215;-74
2021/10/27 01:35:03;;;;;;;3.80;3.43;;;12.40;84.50;;;;;;4944483;29;20570;-74
2021/10/27 01:37:30;;;;;;;6.03;4.00;;;12.40;84.50;;;;;;4947767;28;20292;-74
2021/10/27 01:39:57;;;;;;;2.33;2.13;;;12.40;84.70;;;;;;4954603;28;20634;-74
2021/10/27 01:42:24;;;;;;;1.90;1.80;;;12.40;84.90;;;;;;4959422;28;20214;-74
2021/10/27 01:44:51;;;;;;;3.07;2.37;;;12.30;84.90;;;;;;4952956;29;20249;-74
2021/10/27 01:47:19;;;;;;;1.10;1.10;;;12.30;84.90;;;;;;4949327;29;20241;-74
2021/10/27 01:49:47;;;;;;;2.93;2.73;;;12.30;85.00;;;;;;4948141;29;20288;-74
2021/10/27 01:52:16;;;;;;;2.17;1.27;;;12.20;84.90;;;;;;4942385;28;20219;-74
2021/10/27 01:54:43;;;;;;;2.43;2.23;;;12.20;85.10;;;;;;4978518;28;20621;-74
2021/10/27 01:57:11;;;;;;;4.43;4.00;;;12.20;85.20;;;;;;4944147;29;20221;-74
2021/10/27 01:59:38;;;;;;;3.77;3.20;;;12.10;85.30;;;;;;4946437;28;20599;-74
2021/10/27 02:02:05;;;;;;;2.43;2.23;;;12.10;85.60;;;;;;4946368;28;20213;-74
2021/10/27 02:04:32;;;;;;;4.20;2.83;;;12.00;85.70;;;;;;4943607;29;20213;-74
2021/10/27 02:07:00;;;;;;;2.43;2.10;;;12.00;85.90;;;;;;4943717;28;20229;-73
2021/10/27 02:09:28;;;;;;;4.77;3.43;;;11.90;86.00;;;;;;4974624;28;20222;-73
2021/10/27 02:11:56;;;;;;;2.60;2.40;;;11.90;86.00;;;;;;4945646;29;20222;-74
2021/10/27 02:14:23;;;;;;;2.30;2.17;;;11.90;86.00;;;;;;4944564;29;20221;-74
2021/10/27 02:16:50;;;;;;;3.63;1.80;;;11.90;86.00;;;;;;4946029;28;20583;-73
2021/10/27 02:19:17;;;;;;;2.77;2.57;;;11.80;85.90;;;;;;4960292;28;20218;-74
2021/10/27 02:21:44;;;;;;;0.70;0.70;;;11.80;85.90;;;;;;4948401;28;20627;-74
2021/10/27 02:24:11;;;;;;;1.93;1.83;;;11.80;86.00;;;;;;4946647;29;20214;-74
2021/10/27 02:26:38;;;;;;;3.10;1.77;;;11.80;86.00;;;;;;4975442;28;20226;-75
2021/10/27 02:29:05;;;;;;;3.97;2.97;;;11.80;86.10;;;;;;4946990;29;20253;-74
2021/10/27 02:31:32;;;;;;;1.30;1.27;;;11.70;86.00;;;;;;4943519;28;20230;-74
2021/10/27 02:33:59;;;;;;;3.10;2.27;;;11.70;86.20;;;;;;4940073;29;20257;-74
2021/10/27 02:36:27;;;;;;;3.80;3.60;;;11.60;86.20;;;;;;4945731;28;20238;-74
2021/10/27 02:38:54;;;;;;;2.60;2.40;;;11.60;86.30;;;;;;4944999;29;20222;-74
2021/10/27 02:41:21;;;;;;;1.73;1.63;;;11.60;86.30;;;;;;4946161;28;20232;-74
2021/10/27 02:43:48;;;;;;;3.50;1.97;;;11.50;86.30;;;;;;4947075;28;20292;-74
2021/10/27 02:46:15;;;;;;;4.37;2.27;;;11.50;86.40;;;;;;4950037;28;20233;-74
2021/10/27 02:48:43;;;;;;;5.50;2.33;;;11.50;86.40;;;;;;4953500;28;20673;-74
2021/10/27 02:51:11;;;;;;;5.87;4.13;;;11.40;86.40;;;;;;4942372;28;20314;-74
2021/10/27 02:53:38;;;;;;;2.40;2.30;;;11.40;86.40;;;;;;4971569;28;20226;-74
2021/10/27 02:56:05;;;;;;;5.93;2.23;;;11.30;86.40;;;;;;4946473;29;20230;-74
2021/10/27 02:58:32;;;;;;;4.20;1.70;;;11.30;86.50;;;;;;4945193;28;20210;-74
2021/10/27 03:01:00;;;;;;;3.20;2.90;;;11.30;86.50;;;;;;4976937;28;20218;-74
2021/10/27 03:03:27;;;;;;;1.57;1.47;;;11.30;86.60;;;;;;4946214;28;20234;-74
2021/10/27 03:05:54;;;;;;;9.03;4.13;;;11.20;86.60;;;;;;4947098;29;20224;-74
2021/10/27 03:08:21;;;;;;;3.53;3.00;;;11.20;86.70;;;;;;4943830;29;20218;-74
2021/10/27 03:10:48;;;;;;;2.20;2.00;;;11.10;86.60;;;;;;4947511;28;20230;-73
2021/10/27 03:13:15;;;;;;;1.67;1.37;;;11.20;86.80;;;;;;4952292;28;20230;-74
2021/10/27 03:15:42;;;;;;;5.77;2.83;;;11.10;86.80;;;;;;4948726;29;20383;-73
2021/10/27 03:18:09;;;;;;;2.57;2.03;;;11.10;86.80;;;;;;4957054;29;20215;-73
2021/10/27 03:20:36;;;;;;;3.77;2.40;;;11.00;86.80;;;;;;4944943;28;20219;-73
2021/10/27 03:23:03;;;;;;;5.50;2.57;;;11.00;86.90;;;;;;4947297;28;20236;-74
2021/10/27 03:25:30;;;;;;;2.23;1.97;;;11.00;87.00;;;;;;4953896;28;20308;-74
2021/10/27 03:27:58;;;;;;;2.33;2.20;;;11.00;87.10;;;;;;4951072;29;20726;-74
2021/10/27 03:30:26;;;;;;;2.87;2.17;;;11.00;87.10;;;;;;4953859;28;20261;-74
2021/10/27 03:32:54;;;;;;;3.80;3.50;;;11.00;87.20;;;;;;4960007;28;20297;-73
2021/10/27 03:35:21;;;;;;;1.93;1.83;;;11.00;87.20;;;;;;4956173;28;20245;-74
2021/10/27 03:37:49;;;;;;;4.10;3.57;;;11.00;87.20;;;;;;4969244;28;20226;-73
2021/10/27 03:40:16;;;;;;;2.50;2.03;;;11.00;87.30;;;;;;4961103;29;20582;-74
2021/10/27 03:42:44;;;;;;;8.03;1.73;;;11.00;87.30;;;;;;4955200;29;20210;-73
2021/10/27 03:45:11;;;;;;;1.93;1.77;;;11.00;87.30;;;;;;4956538;28;20245;-74
2021/10/27 03:47:39;;;;;;;4.70;2.50;;;11.00;87.30;;;;;;4947473;29;20236;-74
2021/10/27 03:50:10;;;;;;;11.03;4.10;;;10.90;87.30;;;;;;4948135;28;20621;-74
2021/10/27 03:52:37;;;;;;;3.93;3.63;;;10.90;87.40;;;;;;4945196;28;20249;-74
2021/10/27 03:55:05;;;;;;;2.90;2.63;;;10.90;87.40;;;;;;4948382;28;20281;-74
2021/10/27 03:57:32;;;;;;;2.53;2.07;;;10.90;87.40;;;;;;4949362;29;20222;-74
2021/10/27 03:59:59;;;;;;;6.93;3.80;;;11.00;87.50;;;;;;4946955;29;20222;-73
2021/10/27 04:02:27;;;;;;;0.73;0.73;;;11.00;87.50;;;;;;4955030;28;20212;-73
2021/10/27 04:04:55;;;;;;;3.40;3.10;;;11.00;87.50;;;;;;4947123;29;20214;-73
2021/10/27 04:07:22;;;;;;;3.40;3.17;;;11.00;87.50;;;;;;4954059;29;20218;-74
2021/10/27 04:09:49;;;;;;;10.17;4.27;;;11.00;87.60;;;;;;4949316;29;20276;-74
2021/10/27 04:12:16;;;;;;;3.00;1.70;;;11.00;87.60;;;;;;4960856;28;20229;-74
2021/10/27 04:14:43;;;;;;;2.77;2.60;;;11.00;87.70;;;;;;4949757;29;20232;-74
2021/10/27 04:17:10;;;;;;;1.63;1.53;;;11.00;87.70;;;;;;4948517;28;20473;-74
2021/10/27 04:19:37;;;;;;;3.47;3.17;;;11.00;87.80;;;;;;4945414;29;20660;-73
2021/10/27 04:22:04;;;;;;;4.27;3.90;;;11.00;87.90;;;;;;4944764;28;20211;-73
2021/10/27 04:24:31;;;;;;;5.87;3.87;;;11.00;88.00;;;;;;4946319;29;20601;-73
2021/10/27 04:26:58;;;;;;;10.43;3.00;;;11.00;88.10;;;;;;4947555;29;20222;-74
2021/10/27 04:29:25;;;;;;;2.87;2.67;;;11.00;88.10;;;;;;4946242;28;20241;-74
2021/10/27 04:31:52;;;;;;;2.57;2.40;;;11.00;88.30;;;;;;4948898;28;20224;-74
2021/10/27 04:34:19;;;;;;;3.23;1.73;;;11.00;88.60;;;;;;4948116;29;20236;-74
2021/10/27 04:36:46;;;;;;;0.97;0.90;;;11.00;88.70;;;;;;4945719;29;20276;-73
2021/10/27 04:39:13;;;;;;;4.30;3.03;;;11.00;88.80;;;;;;4955035;29;20277;-74
2021/10/27 04:41:40;;;;;;;3.73;3.00;;;11.00;88.90;;;;;;4948996;29;20209;-74
2021/10/27 04:44:07;;;;;;;7.33;2.93;;;11.00;88.90;;;;;;4946880;29;20214;-74
2021/10/27 04:46:34;;;;;;;4.73;3.60;;;11.00;89.00;;;;;;4947837;28;20211;-74
2021/10/27 04:49:01;;;;;;;1.47;1.43;;;10.90;89.10;;;;;;4945262;29;20309;-74
2021/10/27 04:51:28;;;;;;;2.73;1.73;;;10.90;89.20;;;;;;4955298;28;20562;-74
2021/10/27 04:53:55;;;;;;;4.97;1.77;;;10.90;89.20;;;;;;4960374;28;20254;-73
2021/10/27 04:56:22;;;;;;;2.70;2.50;;;10.90;89.30;;;;;;4948295;28;20290;-73
2021/10/27 04:58:49;;;;;;;8.67;3.30;;;10.90;89.30;;;;;;4947138;28;20221;-73
2021/10/27 05:01:16;;;;;;;3.87;2.20;;;10.80;89.20;;;;;;4946359;29;20214;-73
2021/10/27 05:03:44;;;;;;;3.03;2.83;;;10.80;89.30;;;;;;4953674;29;20218;-73
2021/10/27 05:06:12;;;;;;;6.43;2.90;;;10.70;89.20;;;;;;4949646;28;20234;-74
2021/10/27 05:08:39;;;;;;;3.37;1.53;;;10.70;89.30;;;;;;4948020;29;20232;-73
2021/10/27 05:11:07;;;;;;;2.90;2.63;;;10.70;89.30;;;;;;4944480;29;20405;-74
2021/10/27 05:13:34;;;;;;;6.50;4.07;;;10.60;89.30;;;;;;4945870;29;20301;-74
2021/10/27 05:16:01;;;;;;;2.73;2.53;;;10.60;89.30;;;;;;4947609;28;20265;-74
2021/10/27 05:18:28;;;;;;;4.07;2.87;;;10.60;90.00;;;;;;4955033;29;20296;-74
2021/10/27 05:20:55;;;;;;;2.40;2.30;;;10.50;89.30;;;;;;4944689;28;20214;-73
2021/10/27 05:23:22;;;;;;;3.87;3.57;;;10.50;89.30;;;;;;4942318;28;20332;-74
2021/10/27 05:25:49;;;;;;;6.43;2.73;;;10.40;89.30;;;;;;4950292;29;20218;-73
2021/10/27 05:28:16;;;;;;;3.73;2.37;;;10.40;89.40;;;;;;4953682;29;20214;-73
2021/10/27 05:30:43;;;;;;;1.43;1.33;;;10.30;89.40;;;;;;4957312;28;20589;-74
2021/10/27 05:33:10;;;;;;;1.87;1.77;;;10.30;89.40;;;;;;4950003;28;20232;-74
2021/10/27 05:35:37;;;;;;;4.00;3.77;;;10.20;89.40;;;;;;4943433;28;20229;-74
2021/10/27 05:38:05;;;;;;;3.33;3.03;;;10.20;89.50;;;;;;4956433;29;20221;-74
2021/10/27 05:40:32;;;;;;;3.77;3.47;;;10.10;89.40;;;;;;4943423;28;20225;-72
2021/10/27 05:43:07;;;;;;;2.33;2.13;;;10.10;89.50;;;;;;4945596;29;20289;-72
2021/10/27 05:45:34;;;;;;;3.63;3.33;;;10.10;89.50;;;;;;4963612;28;20229;-72
2021/10/27 05:48:02;;;;;;;1.60;1.50;;;10.00;89.50;;;;;;4972265;28;20585;-72
2021/10/27 05:55:50;;;;;;;2.10;1.63;;;10.00;89.60;;;;;;4948494;28;20258;-72
2021/10/27 05:58:18;;;;;;;0.87;0.87;;;10.00;89.60;;;;;;4946576;29;20218;-72
2021/10/27 06:00:46;;;;;;;5.83;2.77;;;10.00;89.50;;;;;;4950734;29;20222;-72
2021/10/27 06:03:14;;;;;;;4.27;3.00;;;10.00;89.50;;;;;;4947909;29;20647;-72
2021/10/27 06:05:41;;;;;;;3.53;3.30;;;10.00;89.40;;;;;;4947299;28;20215;-72
2021/10/27 06:08:08;;;;;;;3.07;2.87;;;10.00;89.40;;;;;;4946027;28;20537;-71
2021/10/27 06:10:36;;;;;;;1.50;1.50;;;10.00;89.50;;;;;;4976723;28;20225;-73
2021/10/27 06:13:07;;;;;;;3.57;2.87;;;10.00;89.40;;;;;;4945187;28;20630;-73
2021/10/27 06:15:35;;;;;;;3.77;3.37;;;10.10;89.40;;;;;;4946870;28;20217;-72
2021/10/27 06:18:02;;;;;;;4.97;3.67;;;10.10;89.40;;;;;;4940529;28;20273;-72
2021/10/27 06:20:30;;;;;;;1.07;1.07;;;10.10;89.20;;;;;;4944301;29;20219;-72
2021/10/27 06:22:57;;;;;;;2.60;2.40;;;10.10;89.20;;;;;;4943574;28;20545;-72
2021/10/27 06:25:26;;;;;;;3.80;3.50;;;10.10;89.20;;;;;;4946936;28;20277;-71
2021/10/27 06:28:16;;;;;;;3.53;2.63;;;10.20;89.20;;;;;;4953649;28;20225;-71
2021/10/27 06:30:51;;;;;;;1.97;1.83;;;10.20;89.20;;;;;;4945605;29;20250;-72
2021/10/27 06:35:59;;;;;;;2.13;2.03;;;10.30;89.20;;;;;;4944212;29;20210;-72
2021/10/27 06:46:38;;;;;;;3.80;3.50;;;10.60;89.10;;;;;;4947702;28;20230;-71
2021/10/27 06:49:06;;;;;;;0.57;0.57;;;10.70;89.10;;;;;;4946908;28;20647;-71
2021/10/27 06:51:34;;;;;;;2.23;1.27;;;10.90;89.10;;;;;;4952406;28;20233;-72
2021/10/27 06:54:03;;;;;;;2.23;2.10;;;11.00;89.00;;;;;;4942355;28;20253;-72
2021/10/27 06:56:30;;;;;;;4.10;3.00;;;11.10;88.70;;;;;;4980537;28;20230;-72
2021/10/27 07:15:32;;;;;;;12.13;4.03;;;12.40;84.50;;;;;;4952998;28;20230;-70
2021/10/27 07:18:00;;;;;;;2.13;2.03;;;12.60;84.00;;;;;;4950638;28;20605;-71
2021/10/27 07:20:30;;;;;;;5.90;4.33;;;12.80;83.30;;;;;;4948868;29;20242;-70
2021/10/27 07:23:02;;;;;;;4.23;2.90;;;12.90;82.20;;;;;;4960256;28;20217;-71
2021/10/27 07:25:36;;;;;;;7.17;3.90;;;13.00;81.10;;;;;;4953861;29;20214;-71
2021/10/27 07:28:06;;;;;;;3.53;3.27;;;13.10;81.00;;;;;;4960375;29;20222;-72
2021/10/27 07:30:42;;;;;;;1.97;1.83;;;13.20;80.80;;;;;;4950960;28;20304;-70
2021/10/27 07:33:10;;;;;;;3.73;3.43;;;13.40;80.20;;;;;;4989133;28;20228;-70
2021/10/27 07:36:07;;;;;;;3.93;3.17;;;13.50;79.50;;;;;;4957983;28;20529;-70
2021/10/27 07:41:14;;;;;;;1.33;1.23;;;13.70;78.10;;;;;;4954911;29;20222;-71
2021/10/27 07:43:42;;;;;;;3.97;2.63;;;13.80;77.70;;;;;;4958808;28;20213;-73
2021/10/27 07:46:09;;;;;;;3.87;2.57;;;13.80;77.40;;;;;;4971602;28;20214;-72
2021/10/27 07:48:37;;;;;;;4.67;3.57;;;13.90;76.80;;;;;;4962727;28;20597;-72
2021/10/27 07:51:06;;;;;;;3.77;1.90;;;14.00;76.50;;;;;;4952968;28;20214;-71
2021/10/27 07:53:34;;;;;;;2.63;2.53;;;14.10;76.20;;;;;;4958814;29;20218;-71
2021/10/27 07:56:01;;;;;;;3.03;2.50;;;14.20;75.80;;;;;;4955644;29;20284;-72
2021/10/27 07:58:28;;;;;;;6.07;5.50;;;14.30;75.60;;;;;;4953354;29;20214;-73
2021/10/27 08:00:59;;;;;;;5.70;3.90;;;14.50;75.50;;;;;;4952439;28;20215;-73
2021/10/27 08:03:29;;;;;;;2.60;2.40;;;14.60;75.00;;;;;;4953435;28;20214;-72
2021/10/27 08:06:03;;;;;;;5.07;3.83;;;14.70;75.40;;;;;;4954694;28;20553;-73
2021/10/27 08:08:30;;;;;;;4.03;3.17;;;14.80;73.90;;;;;;4953058;28;20213;-72
2021/10/27 08:10:58;;;;;;;2.80;2.50;;;14.90;73.00;;;;;;4969897;28;20210;-72
2021/10/27 08:13:27;;;;;;;4.00;3.53;;;15.00;73.30;;;;;;4986876;28;20221;-72
2021/10/27 08:15:56;;;;;;;3.33;3.13;;;15.10;73.20;;;;;;4967537;28;20207;-73
2021/10/27 08:18:24;;;;;;;6.57;3.30;;;15.20;73.00;;;;;;4955083;29;20238;-72
2021/10/27 08:20:51;;;;;;;2.40;2.27;;;15.30;72.30;;;;;;4957548;29;20209;-73
2021/10/27 08:23:24;;;;;;;3.30;1.57;;;15.30;71.10;;;;;;4959995;29;20301;-71
2021/10/27 08:25:57;;;;;;;9.77;3.40;;;15.40;71.60;;;;;;4961903;28;20220;-73
2021/10/27 08:28:33;;;;;;;2.10;1.30;;;15.50;71.60;;;;;;4956337;29;20227;-74
2021/10/27 08:36:04;;;;;;;6.40;3.37;;;15.90;70.70;;;;;;4953844;28;20254;-72
2021/10/27 08:38:33;;;;;;;2.53;2.40;;;16.00;69.70;;;;;;4952851;29;20237;-74
2021/10/27 08:41:02;;;;;;;4.67;3.50;;;16.00;68.90;;;;;;4948784;29;20225;-72
2021/10/27 08:43:30;;;;;;;2.83;1.87;;;16.00;69.20;;;;;;4950783;29;20226;-72
2021/10/27 08:46:02;;;;;;;3.77;2.93;;;16.00;67.70;;;;;;4950791;28;20225;-73
2021/10/27 08:48:34;;;;;;;2.53;2.17;;;15.90;67.30;;;;;;4954270;29;20297;-73
2021/10/27 08:51:03;;;;;;;3.70;2.90;;;15.90;68.20;;;;;;4958781;28;20309;-74
2021/10/27 08:53:31;;;;;;;4.53;2.90;;;16.00;68.60;;;;;;4952609;28;20221;-73
2021/10/27 08:56:02;;;;;;;3.60;3.40;;;16.20;67.80;;;;;;4952063;29;20552;-73
2021/10/27 08:58:46;;;;;;;3.03;2.83;;;16.30;67.90;;;;;;4956394;28;20234;-72
2021/10/27 09:01:42;;;;;;;3.13;2.57;;;16.30;67.30;;;;;;4957183;28;20217;-72
2021/10/27 09:04:25;;;;;;;3.13;2.90;;;16.40;66.90;;;;;;4953955;28;20244;-74
2021/10/27 09:33:54;;;;;;;2.40;2.23;;;17.00;64.90;;;;;;4949756;29;20308;-73
2021/10/27 09:42:29;;;;;;;1.30;1.20;;;17.30;62.80;;;;;;5089609;27;20555;-73
2021/10/27 10:05:19;;;;;;;2.67;1.50;;;18.00;60.40;;;;;;5083918;28;20556;-73
2021/10/27 10:07:53;;;;;;;4.83;3.93;;;18.00;60.10;;;;;;5074279;28;20263;-72
2021/10/27 10:10:21;;;;;;;2.57;2.37;;;17.90;59.80;;;;;;5090361;28;20241;-71
2021/10/27 10:12:51;;;;;;;4.10;3.67;;;18.00;60.30;;;;;;5073430;22;20253;-71
2021/10/27 10:15:28;;;;;;;2.60;2.37;;;18.10;59.60;;;;;;5066519;22;20336;-85
2021/10/27 10:17:56;;;;;;;2.90;1.70;;;18.10;59.20;;;;;;5038507;28;20222;-84
2021/10/27 10:20:33;;;;;;;2.43;2.10;;;18.20;59.40;;;;;;5049206;28;20321;-86
2021/10/27 10:23:25;;;;;;;7.03;2.80;;;18.20;59.00;;;;;;5022141;28;20249;-86
2021/10/27 10:26:09;;;;;;;6.13;3.07;;;18.40;59.20;;;;;;5021794;28;20211;-85
2021/10/27 10:28:56;;;;;;;3.87;3.47;;;18.50;59.30;;;;;;5023774;28;20242;-85
2021/10/27 10:31:39;;;;;;;2.50;2.40;;;18.70;58.80;;;;;;5030189;28;20286;-86
2021/10/27 10:34:26;;;;;;;2.77;2.57;;;18.80;57.80;;;;;;5023884;28;20215;-85
2021/10/27 10:37:02;;;;;;;2.33;2.13;;;18.80;57.90;;;;;;5020549;28;20223;-86
2021/10/27 10:39:47;;;;;;;4.30;3.13;;;18.80;57.30;;;;;;5019221;28;20219;-85
2021/10/27 10:42:50;;;;;;;3.20;2.57;;;18.80;56.90;;;;;;5018356;28;20600;-85
2021/10/27 10:57:43;;;;;;;1.70;1.70;;;19.10;54.90;;;;;;5042726;28;20226;-86
2021/10/27 11:41:53;;;;;;;5.07;1.87;;;19.70;51.80;;;;;;5020001;28;20239;-87
2021/10/27 11:48:12;;;;;;;2.10;1.97;;;19.80;52.10;;;;;;5030788;28;20278;-86
2021/10/27 11:50:41;;;;;;;1.30;1.20;;;19.90;51.60;;;;;;5021881;28;20265;-84
2021/10/27 11:53:55;;;;;;;2.40;2.20;;;19.90;51.00;;;;;;5017294;28;20215;-86
2021/10/27 11:56:26;;;;;;;3.97;2.10;;;19.90;50.60;;;;;;4976272;28;20244;-85
2021/10/27 11:58:55;;;;;;;2.97;1.97;;;19.90;50.40;;;;;;4998819;28;20238;-86
2021/10/27 12:01:31;;;;;;;1.70;1.60;;;19.80;49.90;;;;;;5023167;28;20231;-84
2021/10/27 12:04:07;;;;;;;4.73;1.23;;;19.90;49.70;;;;;;5007500;28;20226;-85
2021/10/27 12:06:59;;;;;;;1.83;1.70;;;19.90;49.70;;;;;;5020548;28;20298;-84
2021/10/27 12:15:46;;;;;;;3.60;2.03;;;19.90;49.30;;;;;;5030453;28;20730;-84
2021/10/27 12:18:13;;;;;;;5.97;3.13;;;19.80;49.00;;;;;;5033792;28;20219;-85
2021/10/27 12:20:58;;;;;;;1.50;1.40;;;19.80;49.10;;;;;;5017721;28;20329;-86
2021/10/27 12:23:26;;;;;;;2.77;2.57;;;19.80;49.20;;;;;;5011055;28;20575;-86
2021/10/27 12:26:11;;;;;;;2.20;1.73;;;19.70;49.20;;;;;;5021254;28;20238;-86
2021/10/27 12:28:47;;;;;;;5.00;2.03;;;19.80;49.30;;;;;;5022196;28;20206;-84
2021/10/27 12:31:25;;;;;;;1.73;1.63;;;19.90;49.70;;;;;;5005614;28;20628;-85
2021/10/27 12:33:52;;;;;;;2.77;1.47;;;19.90;49.20;;;;;;5010578;28;20230;-86
2021/10/27 12:36:45;;;;;;;2.80;2.07;;;19.90;49.30;;;;;;5021900;28;20249;-85
2021/10/27 12:39:34;;;;;;;2.47;2.10;;;20.00;49.10;;;;;;5006374;28;20222;-85
2021/10/27 12:42:11;;;;;;;2.93;2.73;;;20.00;48.50;;;;;;5014580;28;20241;-86
2021/10/27 12:44:53;;;;;;;11.27;2.70;;;20.00;49.10;;;;;;5006833;28;20663;-86
2021/10/27 12:47:26;;;;;;;1.67;1.57;;;20.00;49.30;;;;;;5023533;28;20242;-86
2021/10/27 12:51:09;;;;;;;;;;;;;;;;;;;;;
2021/10/27 12:53:33;;;;;;;1.13;1.13;;;20.10;48.70;;;;;;5019162;28;20289;-85
2021/10/27 12:56:11;;;;;;;1.97;1.47;;;20.10;49.10;;;;;;5026151;28;20227;-86
2021/10/27 12:58:48;;;;;;;1.37;1.20;;;20.10;48.70;;;;;;5023287;28;20284;-86
2021/10/27 13:01:41;;;;;;;0.93;0.93;;;20.00;49.20;;;;;;5006262;28;20243;-86
2021/10/27 13:04:41;;;;;;;1.40;1.37;;;20.00;49.20;;;;;;5027706;28;20230;-86
2021/10/27 13:07:38;;;;;;;1.27;1.10;;;20.00;49.40;;;;;;5029860;28;20560;-87
2021/10/27 13:10:41;;;;;;;1.97;1.83;;;20.00;49.10;;;;;;5022231;28;20556;-88
2021/10/27 13:33:17;;;;;;;2.30;1.90;;;20.00;49.00;;;;;;4979612;28;20225;-86
2021/10/27 13:36:17;;;;;;;1.20;1.10;;;20.00;48.50;;;;;;4956159;28;20221;-86
2021/10/27 13:39:08;;;;;;;1.67;1.07;;;19.90;48.70;;;;;;4964704;28;20225;-87
2021/10/27 13:42:03;;;;;;;4.30;1.90;;;19.80;49.00;;;;;;4956370;28;20227;-87
2021/10/27 13:44:37;;;;;;;7.57;1.83;;;19.80;49.00;;;;;;4948333;29;20285;-87
2021/10/27 13:48:14;;;;;;;3.73;3.43;;;19.80;48.80;;;;;;4938595;28;20245;-87
2021/10/27 14:41:39;;;;;;;1.63;0.50;;;19.40;50.50;;;;;;5024088;28;20178;-86
2021/10/27 15:22:05;;;;;;;1.33;1.23;;;18.70;52.40;;;;;;5004068;28;20246;-88
2021/10/27 15:51:35;;;;;;;1.97;1.50;;;17.80;55.00;;;;;;5026370;28;20214;-87
2021/10/27 15:54:35;;;;;;;0.70;0.70;;;17.70;55.30;;;;;;5006484;28;20212;-87
2021/10/27 15:57:06;;;;;;;0.50;0.50;;;17.60;55.60;;;;;;5019375;28;20274;-87
2021/10/27 15:59:44;;;;;;;1.80;1.37;;;17.50;55.90;;;;;;5019756;28;20238;-87
2021/10/27 16:02:15;;;;;;;3.80;1.30;;;17.40;56.20;;;;;;5018762;28;20273;-87
2021/10/27 16:04:57;;;;;;;3.40;1.70;;;17.40;56.40;;;;;;4999453;28;20239;-87
2021/10/27 16:07:54;;;;;;;0.43;0.43;;;17.30;56.60;;;;;;5019708;28;20215;-87
2021/10/27 16:10:47;;;;;;;0.93;0.93;;;17.20;56.80;;;;;;5019816;28;20611;-87
2021/10/27 16:13:26;;;;;;;1.27;1.17;;;17.10;57.00;;;;;;5020120;28;20227;-87
2021/10/27 16:16:18;;;;;;;;;;;;;;;;;;;;;
2021/10/27 16:26:31;;;;;;;0.20;0.20;;;16.50;58.10;;;;;;4999399;28;20290;-86
2021/10/27 16:29:20;;;;;;;3.17;2.13;;;16.40;58.30;;;;;;4941358;29;20214;-87
2021/10/27 16:32:33;;;;;;;1.70;1.33;;;16.40;58.40;;;;;;5017907;28;20234;-85
2021/10/27 16:35:15;;;;;;;1.70;1.60;;;16.30;58.70;;;;;;5017088;28;20298;-86
2021/10/27 16:37:58;;;;;;;0.43;0.43;;;16.20;59.00;;;;;;5020719;28;20212;-87
2021/10/27 16:40:26;;;;;;;1.83;1.20;;;16.20;58.90;;;;;;5019474;28;20226;-87
2021/10/27 16:43:30;;;;;;;0.97;0.90;;;16.30;58.80;;;;;;5025774;28;20246;-86
2021/10/27 16:45:58;;;;;;;0.80;0.80;;;16.30;58.50;;;;;;5031010;28;20203;-85
2021/10/27 16:52:57;;;;;;;1.50;1.40;;;16.20;58.90;;;;;;5023763;28;20263;-86
2021/10/27 16:55:57;;;;;;;1.30;0.73;;;16.10;59.30;;;;;;5040595;28;20254;-86
2021/10/27 16:59:20;;;;;;;;;;;;;;;;;;;;;
2021/10/27 17:02:16;;;;;;;0.10;0.10;;;15.80;59.60;;;;;;5040505;28;20237;-85
2021/10/27 17:14:48;;;;;;;1.53;1.43;;;15.60;60.10;;;;;;5026110;28;20198;-87
2021/10/27 17:17:16;;;;;;;0.43;0.43;;;15.40;60.40;;;;;;5022618;28;20218;-87
2021/10/27 17:20:05;;;;;;;4.47;1.87;;;15.30;60.70;;;;;;5022046;28;20272;-87
2021/10/27 17:23:02;;;;;;;1.30;1.23;;;15.30;60.90;;;;;;5023160;28;20230;-87
2021/10/27 17:25:42;;;;;;;0.20;0.20;;;15.20;61.10;;;;;;5019575;28;20215;-87
2021/10/27 17:28:36;;;;;;;0.70;0.70;;;15.20;61.30;;;;;;5029018;28;20225;-86
2021/10/27 17:31:40;;;;;;;0.83;0.83;;;15.10;62.10;;;;;;5029413;28;20266;-87
2021/10/27 17:34:08;;;;;;;0.63;0.63;;;15.00;61.80;;;;;;5010088;28;20246;-86
2021/10/27 17:36:40;;;;;;;0.30;0.30;;;14.90;61.90;;;;;;5026061;28;20214;-86
2021/10/27 17:39:08;;;;;;;0.93;0.93;;;14.80;62.20;;;;;;5024493;28;20239;-86
2021/10/27 17:41:58;;;;;;;0.40;0.40;;;14.70;62.60;;;;;;5024708;28;20296;-86
2021/10/27 17:44:43;;;;;;;;;;;;;;;;;;;;;
2021/10/27 17:47:23;;;;;;;0.10;0.10;;;14.60;63.10;;;;;;5041231;28;20214;-86
2021/10/27 17:50:17;;;;;;;0.73;0.73;;;14.50;63.40;;;;;;5021694;28;20709;-86
2021/10/27 17:57:25;;;;;;;0.40;0.40;;;14.40;63.60;;;;;;5038233;28;20584;-86
2021/10/27 17:58:55;;;;;;;0.97;0.97;;;14.30;64.20;;;;;;5020709;28;20221;-87
2021/10/27 18:09:13;;;;;;;0.90;0.90;;;14.10;65.00;;;;;;4943272;29;20565;-85
2021/10/27 18:11:48;;;;;;;4.73;1.67;;;14.00;65.20;;;;;;4942820;29;20244;-84
2021/10/27 18:14:24;;;;;;;1.83;1.10;;;13.90;65.60;;;;;;5016416;28;20217;-84
2021/10/27 18:17:30;;;;;;;1.17;0.67;;;13.80;65.80;;;;;;5042371;28;20237;-84
2021/10/27 18:20:24;;;;;;;3.00;1.70;;;13.70;66.30;;;;;;5025976;28;20623;-85
2021/10/27 18:23:21;;;;;;;0.63;0.63;;;13.60;66.50;;;;;;5026542;28;20230;-86
2021/10/27 18:37:13;;;;;;;2.03;0.50;;;13.20;68.00;;;;;;5042547;28;20215;-84
2021/10/27 18:43:18;;;;;;;0.67;0.67;;;13.10;68.30;;;;;;5041361;28;20226;-84
2021/10/27 18:45:49;;;;;;;0.63;0.63;;;13.10;68.30;;;;;;5022264;28;20562;-84
2021/10/27 18:48:30;;;;;;;1.93;0.40;;;13.20;68.30;;;;;;5007346;28;20227;-84
2021/10/27 18:51:37;;;;;;;0.93;0.93;;;13.20;68.40;;;;;;5007228;28;20222;-84
2021/10/27 18:57:10;;;;;;;0.20;0.20;;;13.20;68.50;;;;;;5029495;28;20227;-85
2021/10/27 19:00:58;;;;;;;0.93;0.93;;;13.10;68.50;;;;;;5024389;28;20234;-86
2021/10/27 19:13:21;;;;;;;1.83;0.90;;;12.90;69.10;;;;;;5039188;28;20255;-86
2021/10/27 19:15:58;;;;;;;1.73;1.63;;;12.80;69.40;;;;;;5024053;28;20585;-86
2021/10/27 19:18:56;;;;;;;1.10;0.80;;;12.70;69.80;;;;;;5026935;28;20206;-86